Huvudsida
METAR-TAF:

METAR-TAF

Flygplatser :

Phnom Penhs internationella flygplats

Phnom Penh, Kambodja

latitud: 11-33N, longitud: 104-51E, höjd: 10 m

Aktuellt väderrapport

Denna rapport gjordes för 39 minuter sedan, klockan 23:30 UTC
Vind 2 kt från syd/sydväst
Temperatur 26°C
Fuktighet 94%
Tryck 1006 hPa
Sikt 10 km eller mer
Få moln på en höjd av 1700 ft
Spridda moln på en höjd av 4000 ft

METAR: VDPP 242330Z 21002KT 9999 FEW017 SCT040 26/25 Q1006

Tid: 07:09 (00:09 UTC)

Väderprognos

Denna rapport gjordes för 1 timme och 9 minuter sedan, klockan 23:00 UTC
Prognos gäller från 25 kl. 00 UTC till 25 kl. 18 UTC
Vind 7 kt från sydväst
Sikt 10 km eller mer
Spridda moln på en höjd av 1700 ft
Temporärt
från 25 kl. 06 UTC till 25 kl. 11 UTC
Sikt: 5000 m
Spridda moln på en höjd av 1500 ft
Få moln på en höjd av 1700 ft, Cumulonimbus.
åska, regn

TAF: VDPP 242300Z 2500/2518 22007KT 9999 SCT017 TEMPO 2506/2511 5000 TSRA SCT015 FEW017CB

Aktuella väderrapporter och prognoser från 4000 flygplatser (METAR- och TAF-rapporter).

De tillgängliga stationerna syns som gula och röda prickar på kartan.

För musen över prickarna för att se namnen på stationerna.

Klicka sedan för att få väderrapporter och prognoser.

För att ändra kartan: Klicka på de gröna knapparna med ett svart kors på för att zooma in; den gröna knappen med ett streck på för att zooma ut; eller på de gröna pilarna för angränsande kartor.


METAR-TAF: